Terminal Aerodrome Forecast
Issued by NWS

Home | Current Version | Previous Version | Text Only | Print | Product List | Glossary On
Versions: 1 2 3 4 5 6 7 8 9 10 11 12 13
432
FTUS43 KPAH 272320
TAFCGI
TAF
KCGI 272320Z 2800/2824 13003KT P6SM SKC
     FM281400 17008KT P6SM FEW040
     FM281700 19012G19KT P6SM SCT050=

USA.gov is the U.S. government's official web portal to all federal, state and local government web resources and services.